Cape Bellavista — 9HA2665 — position and weather

sailwx.info

Track history (hours):
 
Tides and Currents Weather Stations Pressure Air Temp Water Temp Dewpoint Dewpoint Depression Visibility Wind Speed Wind Dir Waves Ship Positions

Cape Bellavista

Last reported at 2017-Oct-04 19:04 UTC. Time now 2017-Oct-23 04:31 UTC.
Position N 36°54' W 029°16'.
Warning: this ship's position is 18 days out of date.

Length 274 m; draft 16 m.

Type: Ship. MMSI: 215172000.

Date/timePositionNaut miles runAvg speedWind from/ knotsBaromVisibWave heightAir tempDewpointWater temp
2017-Oct-04 19:04N 36°54' W 029°16'112.5
2017-Oct-04 18:59N 36°53' W 029°15'1512.7
2017-Oct-04 17:49N 36°52' W 028°56'6813.5
2017-Oct-04 12:47N 36°44' W 027°32'1113.0
2017-Oct-04 11:59N 36°43' W 027°19'612.7
2017-Oct-04 11:29N 36°43' W 027°11'612.7
2017-Oct-04 11:00N 36°42' W 027°03'712.7
2017-Oct-04 10:29N 36°41' W 026°55'612.7
2017-Oct-04 09:58N 36°40' W 026°47'812.7
2017-Oct-04 09:20N 36°39' W 026°37'512.8
2017-Oct-04 08:58N 36°39' W 026°31'612.9
2017-Oct-04 08:30N 36°38' W 026°24'713.2
2017-Oct-04 07:59N 36°38' W 026°15'613.1
2017-Oct-04 07:30N 36°37' W 026°07'612.9
2017-Oct-04 07:00N 36°36' W 025°59'612.9
2017-Oct-04 06:30N 36°36' W 025°51'713.2
2017-Oct-04 06:01N 36°35' W 025°43'713.4
2017-Oct-04 05:30N 36°34' W 025°35'713.3
2017-Oct-04 05:00N 36°33' W 025°27'713.4
2017-Oct-04 04:30N 36°33' W 025°18'713.3
2017-Oct-04 04:00N 36°33' W 025°10'713.1
2017-Oct-04 03:31N 36°33' W 025°02'713.2
2017-Oct-04 03:00N 36°33' W 024°54'713.3
2017-Oct-04 02:31N 36°32' W 024°46'713.3
2017-Oct-04 02:00N 36°32' W 024°37'713.2
2017-Oct-04 01:30N 36°31' W 024°29'713.2
2017-Oct-04 01:00N 36°31' W 024°21'713.2
2017-Oct-04 00:30N 36°31' W 024°13'713.2
2017-Oct-04 00:00N 36°31' W 024°04'713.1
2017-Oct-03 23:31N 36°31' W 023°56'713.1
2017-Oct-03 23:00N 36°30' W 023°48'613.1
2017-Oct-03 22:30N 36°30' W 023°40'713.1
2017-Oct-03 21:57N 36°30' W 023°31'713.4
2017-Oct-03 21:26N 36°30' W 023°22'1013.1
2017-Oct-03 20:39N 36°29' W 023°10'213.3
2017-Oct-03 20:28N 36°29' W 023°07'613.0
2017-Oct-03 20:00N 36°29' W 022°59'712.7
2017-Oct-03 19:27N 36°29' W 022°50'612.9
2017-Oct-03 18:59N 36°28' W 022°43'612.9
2017-Oct-03 18:30N 36°28' W 022°35'712.7
2017-Oct-03 17:55N 36°28' W 022°26'1012.7
2017-Oct-03 17:07N 36°27' W 022°13'212.9
2017-Oct-03 16:58N 36°27' W 022°11'1112.8
2017-Oct-03 16:05N 36°27' W 021°57'413.0
2017-Oct-03 15:47N 36°27' W 021°52'1412.8
2017-Oct-03 14:42N 36°26' W 021°35'1212.8
2017-Oct-03 13:45N 36°26' W 021°19'312.8
2017-Oct-03 13:30N 36°26' W 021°16'813.0
2017-Oct-03 12:53N 36°25' W 021°06'612.9
2017-Oct-03 12:26N 36°25' W 020°58'613.1
2017-Oct-03 12:00N 36°25' W 020°51'613.0
2017-Oct-03 11:30N 36°25' W 020°43'713.0
2017-Oct-03 11:00N 36°24' W 020°35'712.9
2017-Oct-03 10:30N 36°24' W 020°27'613.1
2017-Oct-03 10:00N 36°24' W 020°19'612.9
2017-Oct-03 09:31N 36°24' W 020°11'612.7
2017-Oct-03 09:00N 36°23' W 020°03'912.7
2017-Oct-03 08:16N 36°23' W 019°52'312.9
2017-Oct-03 08:00N 36°23' W 019°48'912.6
2017-Oct-03 07:19N 36°23' W 019°37'412.5
2017-Oct-03 07:00N 36°22' W 019°32'712.7
2017-Oct-03 06:26N 36°22' W 019°23'712.6
2017-Oct-03 05:55N 36°22' W 019°15'1012.8
2017-Oct-03 05:06N 36°21' W 019°02'212.9
2017-Oct-03 04:55N 36°21' W 018°59'912.7
2017-Oct-03 04:15N 36°21' W 018°48'512.9
2017-Oct-03 03:49N 36°21' W 018°42'412.8
2017-Oct-03 03:30N 36°21' W 018°36'612.8
2017-Oct-03 03:00N 36°20' W 018°29'612.5
2017-Oct-03 02:30N 36°20' W 018°21'612.5
2017-Oct-03 02:00N 36°20' W 018°13'612.4
2017-Oct-03 01:30N 36°20' W 018°05'612.4
2017-Oct-03 01:00N 36°19' W 017°58'612.5
2017-Oct-03 00:29N 36°19' W 017°50'1912.7
2017-Oct-02 23:01N 36°18' W 017°26'212.9
2017-Oct-02 22:50N 36°18' W 017°23'412.6
2017-Oct-02 22:30N 36°18' W 017°18'612.4
2017-Oct-02 22:00N 36°18' W 017°11'1612.6
2017-Oct-02 20:45N 36°17' W 016°51'312.8
2017-Oct-02 20:30N 36°17' W 016°47'3712.8
2017-Oct-02 17:35N 36°16' W 016°01'112.6
2017-Oct-02 17:28N 36°16' W 015°59'1412.8
2017-Oct-02 16:20N 36°15' W 015°41'10413.0
2017-Oct-02 08:18N 36°11' W 013°32'4313.0
2017-Oct-02 05:00N 36°09' W 012°39'713.3
2017-Oct-02 04:29N 36°09' W 012°31'613.0
2017-Oct-02 04:00N 36°09' W 012°23'612.9
2017-Oct-02 03:30N 36°09' W 012°15'713.1
2017-Oct-02 03:00N 36°08' W 012°07'713.1
2017-Oct-02 02:30N 36°08' W 011°59'713.0
2017-Oct-02 01:57N 36°08' W 011°50'612.8
2017-Oct-02 01:30N 36°08' W 011°43'712.9
2017-Oct-02 00:58N 36°08' W 011°34'2012.7
2017-Oct-01 23:21N 36°06' W 011°09'512.9
2017-Oct-01 22:58N 36°06' W 011°03'2612.8
2017-Oct-01 20:58N 36°05' W 010°31'612.8
2017-Oct-01 20:29N 36°05' W 010°23'613.0
2017-Oct-01 20:00N 36°05' W 010°16'713.2
2017-Oct-01 19:28N 36°05' W 010°07'613.3
2017-Oct-01 19:01N 36°04' W 009°59'713.4
2017-Oct-01 18:29N 36°04' W 009°51'613.1
2017-Oct-01 18:00N 36°04' W 009°43'712.8
2017-Oct-01 17:28N 36°04' W 009°34'612.8
2017-Oct-01 17:00N 36°03' W 009°27'197 5.0
2017-Sep-30 02:00N 36°07' W 005°24'3 6.2
2017-Sep-30 01:30N 36°04' W 005°22'2 3.5
2017-Sep-30 01:00N 36°04' W 005°20'5 9.9
2017-Sep-30 00:30N 36°04' W 005°13'  
2017-Sep-27 00:16N 36°12' E 013°20'1013.6
2017-Sep-26 23:33N 36°05' E 013°30'313.9
2017-Sep-26 23:18N 36°03' E 013°33'  
Track history (hours):
 
Tides and Currents Weather Stations Pressure Air Temp Water Temp Dewpoint Dewpoint Depression Visibility Wind Speed Wind Dir Waves Ship Positions

Cape Bellavista

Last reported at 2017-Oct-04 19:04 UTC. Time now 2017-Oct-23 04:31 UTC.
Position N 36°54' W 029°16'.
Warning: this ship's position is 18 days out of date.

Length 274 m; draft 16 m.

Type: Ship. MMSI: 215172000.

Date/timePositionNaut miles runAvg speedWind from/ knotsBaromVisibWave heightAir tempDewpointWater temp
2017-Oct-04 19:04N 36°54' W 029°16'112.5
2017-Oct-04 18:59N 36°53' W 029°15'1512.7
2017-Oct-04 17:49N 36°52' W 028°56'6813.5
2017-Oct-04 12:47N 36°44' W 027°32'1113.0
2017-Oct-04 11:59N 36°43' W 027°19'612.7
2017-Oct-04 11:29N 36°43' W 027°11'612.7
2017-Oct-04 11:00N 36°42' W 027°03'712.7
2017-Oct-04 10:29N 36°41' W 026°55'612.7
2017-Oct-04 09:58N 36°40' W 026°47'812.7
2017-Oct-04 09:20N 36°39' W 026°37'512.8
2017-Oct-04 08:58N 36°39' W 026°31'612.9
2017-Oct-04 08:30N 36°38' W 026°24'713.2
2017-Oct-04 07:59N 36°38' W 026°15'613.1
2017-Oct-04 07:30N 36°37' W 026°07'612.9
2017-Oct-04 07:00N 36°36' W 025°59'612.9
2017-Oct-04 06:30N 36°36' W 025°51'713.2
2017-Oct-04 06:01N 36°35' W 025°43'713.4
2017-Oct-04 05:30N 36°34' W 025°35'713.3
2017-Oct-04 05:00N 36°33' W 025°27'713.4
2017-Oct-04 04:30N 36°33' W 025°18'713.3
2017-Oct-04 04:00N 36°33' W 025°10'713.1
2017-Oct-04 03:31N 36°33' W 025°02'713.2
2017-Oct-04 03:00N 36°33' W 024°54'713.3
2017-Oct-04 02:31N 36°32' W 024°46'713.3
2017-Oct-04 02:00N 36°32' W 024°37'713.2
2017-Oct-04 01:30N 36°31' W 024°29'713.2
2017-Oct-04 01:00N 36°31' W 024°21'713.2
2017-Oct-04 00:30N 36°31' W 024°13'713.2
2017-Oct-04 00:00N 36°31' W 024°04'713.1
2017-Oct-03 23:31N 36°31' W 023°56'713.1
2017-Oct-03 23:00N 36°30' W 023°48'613.1
2017-Oct-03 22:30N 36°30' W 023°40'713.1
2017-Oct-03 21:57N 36°30' W 023°31'713.4
2017-Oct-03 21:26N 36°30' W 023°22'1013.1
2017-Oct-03 20:39N 36°29' W 023°10'213.3
2017-Oct-03 20:28N 36°29' W 023°07'613.0
2017-Oct-03 20:00N 36°29' W 022°59'712.7
2017-Oct-03 19:27N 36°29' W 022°50'612.9
2017-Oct-03 18:59N 36°28' W 022°43'612.9
2017-Oct-03 18:30N 36°28' W 022°35'712.7
2017-Oct-03 17:55N 36°28' W 022°26'1012.7
2017-Oct-03 17:07N 36°27' W 022°13'212.9
2017-Oct-03 16:58N 36°27' W 022°11'1112.8
2017-Oct-03 16:05N 36°27' W 021°57'413.0
2017-Oct-03 15:47N 36°27' W 021°52'1412.8
2017-Oct-03 14:42N 36°26' W 021°35'1212.8
2017-Oct-03 13:45N 36°26' W 021°19'312.8
2017-Oct-03 13:30N 36°26' W 021°16'813.0
2017-Oct-03 12:53N 36°25' W 021°06'612.9
2017-Oct-03 12:26N 36°25' W 020°58'613.1
2017-Oct-03 12:00N 36°25' W 020°51'613.0
2017-Oct-03 11:30N 36°25' W 020°43'713.0
2017-Oct-03 11:00N 36°24' W 020°35'712.9
2017-Oct-03 10:30N 36°24' W 020°27'613.1
2017-Oct-03 10:00N 36°24' W 020°19'612.9
2017-Oct-03 09:31N 36°24' W 020°11'612.7
2017-Oct-03 09:00N 36°23' W 020°03'912.7
2017-Oct-03 08:16N 36°23' W 019°52'312.9
2017-Oct-03 08:00N 36°23' W 019°48'912.6
2017-Oct-03 07:19N 36°23' W 019°37'412.5
2017-Oct-03 07:00N 36°22' W 019°32'712.7
2017-Oct-03 06:26N 36°22' W 019°23'712.6
2017-Oct-03 05:55N 36°22' W 019°15'1012.8
2017-Oct-03 05:06N 36°21' W 019°02'212.9
2017-Oct-03 04:55N 36°21' W 018°59'912.7
2017-Oct-03 04:15N 36°21' W 018°48'512.9
2017-Oct-03 03:49N 36°21' W 018°42'412.8
2017-Oct-03 03:30N 36°21' W 018°36'612.8
2017-Oct-03 03:00N 36°20' W 018°29'612.5
2017-Oct-03 02:30N 36°20' W 018°21'612.5
2017-Oct-03 02:00N 36°20' W 018°13'612.4
2017-Oct-03 01:30N 36°20' W 018°05'612.4
2017-Oct-03 01:00N 36°19' W 017°58'612.5
2017-Oct-03 00:29N 36°19' W 017°50'1912.7
2017-Oct-02 23:01N 36°18' W 017°26'212.9
2017-Oct-02 22:50N 36°18' W 017°23'412.6
2017-Oct-02 22:30N 36°18' W 017°18'612.4
2017-Oct-02 22:00N 36°18' W 017°11'1612.6
2017-Oct-02 20:45N 36°17' W 016°51'312.8
2017-Oct-02 20:30N 36°17' W 016°47'3712.8
2017-Oct-02 17:35N 36°16' W 016°01'112.6
2017-Oct-02 17:28N 36°16' W 015°59'1412.8
2017-Oct-02 16:20N 36°15' W 015°41'10413.0
2017-Oct-02 08:18N 36°11' W 013°32'4313.0
2017-Oct-02 05:00N 36°09' W 012°39'713.3
2017-Oct-02 04:29N 36°09' W 012°31'613.0
2017-Oct-02 04:00N 36°09' W 012°23'612.9
2017-Oct-02 03:30N 36°09' W 012°15'713.1
2017-Oct-02 03:00N 36°08' W 012°07'713.1
2017-Oct-02 02:30N 36°08' W 011°59'713.0
2017-Oct-02 01:57N 36°08' W 011°50'612.8
2017-Oct-02 01:30N 36°08' W 011°43'712.9
2017-Oct-02 00:58N 36°08' W 011°34'2012.7
2017-Oct-01 23:21N 36°06' W 011°09'512.9
2017-Oct-01 22:58N 36°06' W 011°03'2612.8
2017-Oct-01 20:58N 36°05' W 010°31'612.8
2017-Oct-01 20:29N 36°05' W 010°23'613.0
2017-Oct-01 20:00N 36°05' W 010°16'713.2
2017-Oct-01 19:28N 36°05' W 010°07'613.3
2017-Oct-01 19:01N 36°04' W 009°59'713.4
2017-Oct-01 18:29N 36°04' W 009°51'613.1
2017-Oct-01 18:00N 36°04' W 009°43'712.8
2017-Oct-01 17:28N 36°04' W 009°34'612.8
2017-Oct-01 17:00N 36°03' W 009°27'197 5.0
2017-Sep-30 02:00N 36°07' W 005°24'3 6.2
2017-Sep-30 01:30N 36°04' W 005°22'2 3.5
2017-Sep-30 01:00N 36°04' W 005°20'5 9.9
2017-Sep-30 00:30N 36°04' W 005°13'  
2017-Sep-27 00:16N 36°12' E 013°20'1013.6
2017-Sep-26 23:33N 36°05' E 013°30'313.9
2017-Sep-26 23:18N 36°03' E 013°33'  

Dump ship's entire track history